This is the latest recevied weather packets stored in our database for station/object N4OGP-WX. If no packets are shown the sender has not sent any weather packets the latest 10 day(s).
| Time | Temp. | Humidity | Pressure | Rain* | Wind** | Luminosity | Snow |
|---|---|---|---|---|---|---|---|
| 1777582190 | 26.67° C | 67% | 1008.9 hPa | 0 mm | - | - | - |
| 1777582100 | 26.67° C | 67% | 1008.9 hPa | 0 mm | - | - | - |
| 1777582040 | 26.67° C | 67% | 1008.9 hPa | 0 mm | - | - | - |
| 1777581950 | 23.89° C | 42% | 1020.4 hPa | 0 mm | - | - | - |
| 1777581890 | 26.67° C | 67% | 1009 hPa | 0 mm | - | - | - |
| 1777581830 | 23.89° C | 42% | 1020.4 hPa | 0 mm | - | - | - |
| 1777581770 | 26.11° C | 69% | 1008.9 hPa | 0 mm | - | - | - |
| 1777581710 | 23.89° C | 42% | 1020.4 hPa | 0 mm | - | - | - |
| 1777581650 | 26.11° C | 69% | 1008.9 hPa | 0 mm | - | - | - |
| 1777581590 | 26.11° C | 69% | 1009 hPa | 0 mm | - | - | - |
| 1777581530 | 26.11° C | 68% | 1009 hPa | 0 mm | - | - | - |
| 1777581470 | 23.89° C | 42% | 1020.4 hPa | 0 mm | - | - | - |
| 1777581410 | 26.11° C | 69% | 1009.1 hPa | 0 mm | - | - | - |
| 1777581350 | 23.89° C | 42% | 1020.4 hPa | 0 mm | - | - | - |
| 1777581290 | 26.11° C | 70% | 1009.2 hPa | 0 mm | - | - | - |
| 1777581200 | 23.89° C | 42% | 1020.4 hPa | 0 mm | - | - | - |
| 1777581110 | 25.56° C | 71% | 1009.3 hPa | 0 mm | - | - | - |
| 1777581050 | 23.89° C | 42% | 1020.4 hPa | 0 mm | - | - | - |
| 1777580990 | 25.56° C | 70% | 1009.3 hPa | 0 mm | - | - | - |
| 1777580930 | 23.89° C | 42% | 1020.4 hPa | 0 mm | - | - | - |
| 1777580840 | 23.89° C | 42% | 1020.4 hPa | 0 mm | - | - | - |
| 1777580780 | 23.89° C | 42% | 1020.4 hPa | 0 mm | - | - | - |
| 1777580720 | 25.56° C | 70% | 1009.4 hPa | 0 mm | - | - | - |
| 1777580630 | 25.56° C | 70% | 1009.4 hPa | 0 mm | - | - | - |
| 1777580540 | 25.56° C | 71% | 1009.4 hPa | 0 mm | - | - | - |
* Rain latest hour (hover to see other rain measurements)
** Current wind speed in m/s (hover to see current wind gust speed)